Terminal Aerodrome Forecast
Issued by NWS

Home | Current Version | Previous Version | Graphics & Text | Print | Product List | Glossary On
Versions: 1 2 3 4 5 6 7 8 9 10 11 12
000
FTUS45 KGGW 252325
TAFOLF
TAF
KOLF 252325Z 2600/2624 08010KT P6SM BKN050
     FM260400 09006KT P6SM BKN060
     FM261800 10009KT P6SM SCT045=

USA.gov is the U.S. government's official web portal to all federal, state and local government web resources and services.